sensor_id;sensor_type;location;lat;lon;timestamp;P1;durP1;ratioP1;P2;durP2;ratioP2
27213;SDS011;14723;55.814;37.460;2023-09-19T00:01:55;24.77;;;13.82;;
27213;SDS011;14723;55.814;37.460;2023-09-19T00:05:01;27.23;;;13.00;;
27213;SDS011;14723;55.814;37.460;2023-09-19T00:08:07;23.30;;;14.15;;
27213;SDS011;14723;55.814;37.460;2023-09-19T00:11:12;23.17;;;13.18;;
27213;SDS011;14723;55.814;37.460;2023-09-19T00:14:20;22.55;;;13.27;;
27213;SDS011;14723;55.814;37.460;2023-09-19T00:20:32;21.77;;;13.68;;
27213;SDS011;14723;55.814;37.460;2023-09-19T00:23:38;19.35;;;12.00;;
27213;SDS011;14723;55.814;37.460;2023-09-19T00:26:45;19.08;;;12.07;;
27213;SDS011;14723;55.814;37.460;2023-09-19T00:29:54;21.42;;;12.40;;
27213;SDS011;14723;55.814;37.460;2023-09-19T00:32:59;20.83;;;12.15;;
27213;SDS011;14723;55.814;37.460;2023-09-19T00:36:08;20.80;;;12.70;;
27213;SDS011;14723;55.814;37.460;2023-09-19T00:39:13;22.30;;;13.02;;
27213;SDS011;14723;55.814;37.460;2023-09-19T00:42:19;20.05;;;11.05;;
27213;SDS011;14723;55.814;37.460;2023-09-19T00:45:27;23.45;;;12.57;;
27213;SDS011;14723;55.814;37.460;2023-09-19T00:48:35;24.67;;;13.40;;
27213;SDS011;14723;55.814;37.460;2023-09-19T00:51:46;22.08;;;12.68;;
27213;SDS011;14723;55.814;37.460;2023-09-19T00:54:52;24.05;;;13.43;;
27213;SDS011;14723;55.814;37.460;2023-09-19T00:57:57;21.52;;;11.95;;
27213;SDS011;14723;55.814;37.460;2023-09-19T01:01:05;22.63;;;13.02;;
27213;SDS011;14723;55.814;37.460;2023-09-19T01:04:10;19.95;;;11.93;;
27213;SDS011;14723;55.814;37.460;2023-09-19T01:07:16;20.08;;;12.18;;
27213;SDS011;14723;55.814;37.460;2023-09-19T01:10:21;22.80;;;12.73;;
27213;SDS011;14723;55.814;37.460;2023-09-19T01:13:29;23.70;;;13.05;;
27213;SDS011;14723;55.814;37.460;2023-09-19T01:16:41;18.48;;;11.80;;
27213;SDS011;14723;55.814;37.460;2023-09-19T01:20:01;18.95;;;12.68;;
27213;SDS011;14723;55.814;37.460;2023-09-19T01:23:14;20.27;;;13.13;;
27213;SDS011;14723;55.814;37.460;2023-09-19T01:26:27;21.10;;;12.95;;
27213;SDS011;14723;55.814;37.460;2023-09-19T01:29:36;21.27;;;13.23;;
27213;SDS011;14723;55.814;37.460;2023-09-19T01:32:45;20.40;;;12.60;;
27213;SDS011;14723;55.814;37.460;2023-09-19T01:35:51;19.38;;;11.32;;
27213;SDS011;14723;55.814;37.460;2023-09-19T01:39:01;19.90;;;12.43;;
27213;SDS011;14723;55.814;37.460;2023-09-19T01:42:12;20.45;;;12.35;;
27213;SDS011;14723;55.814;37.460;2023-09-19T01:45:26;24.38;;;12.73;;
27213;SDS011;14723;55.814;37.460;2023-09-19T01:48:38;18.48;;;12.45;;
27213;SDS011;14723;55.814;37.460;2023-09-19T01:51:47;21.33;;;11.73;;
27213;SDS011;14723;55.814;37.460;2023-09-19T01:54:56;19.10;;;12.25;;
27213;SDS011;14723;55.814;37.460;2023-09-19T01:58:07;21.48;;;12.00;;
27213;SDS011;14723;55.814;37.460;2023-09-19T02:01:15;19.63;;;11.77;;
27213;SDS011;14723;55.814;37.460;2023-09-19T02:04:24;17.77;;;12.32;;
27213;SDS011;14723;55.814;37.460;2023-09-19T02:07:31;20.75;;;12.50;;
27213;SDS011;14723;55.814;37.460;2023-09-19T02:10:40;20.73;;;13.23;;
27213;SDS011;14723;55.814;37.460;2023-09-19T02:13:48;21.40;;;13.02;;
27213;SDS011;14723;55.814;37.460;2023-09-19T02:16:57;19.10;;;11.93;;
27213;SDS011;14723;55.814;37.460;2023-09-19T02:20:06;21.10;;;12.38;;
27213;SDS011;14723;55.814;37.460;2023-09-19T02:23:16;16.83;;;11.77;;
27213;SDS011;14723;55.814;37.460;2023-09-19T02:26:22;19.35;;;12.27;;
27213;SDS011;14723;55.814;37.460;2023-09-19T02:29:29;20.80;;;13.02;;
27213;SDS011;14723;55.814;37.460;2023-09-19T02:32:37;20.67;;;12.67;;
27213;SDS011;14723;55.814;37.460;2023-09-19T02:35:45;18.75;;;12.50;;
27213;SDS011;14723;55.814;37.460;2023-09-19T02:38:51;19.13;;;11.75;;
27213;SDS011;14723;55.814;37.460;2023-09-19T02:41:56;19.95;;;13.57;;
27213;SDS011;14723;55.814;37.460;2023-09-19T02:45:02;21.27;;;12.65;;
27213;SDS011;14723;55.814;37.460;2023-09-19T02:48:08;19.65;;;13.43;;
27213;SDS011;14723;55.814;37.460;2023-09-19T02:51:16;20.63;;;12.70;;
27213;SDS011;14723;55.814;37.460;2023-09-19T02:54:22;19.40;;;13.23;;
27213;SDS011;14723;55.814;37.460;2023-09-19T02:57:28;19.40;;;13.35;;
27213;SDS011;14723;55.814;37.460;2023-09-19T03:00:35;21.35;;;14.48;;
27213;SDS011;14723;55.814;37.460;2023-09-19T03:03:41;21.13;;;12.77;;
27213;SDS011;14723;55.814;37.460;2023-09-19T03:06:49;20.10;;;13.98;;
27213;SDS011;14723;55.814;37.460;2023-09-19T03:10:01;21.85;;;14.18;;
27213;SDS011;14723;55.814;37.460;2023-09-19T03:13:07;22.63;;;13.20;;
27213;SDS011;14723;55.814;37.460;2023-09-19T03:16:13;23.15;;;13.65;;
27213;SDS011;14723;55.814;37.460;2023-09-19T03:19:19;21.90;;;13.40;;
27213;SDS011;14723;55.814;37.460;2023-09-19T03:22:28;19.63;;;12.23;;
27213;SDS011;14723;55.814;37.460;2023-09-19T03:25:35;23.58;;;12.65;;
27213;SDS011;14723;55.814;37.460;2023-09-19T03:28:41;27.30;;;12.82;;
27213;SDS011;14723;55.814;37.460;2023-09-19T03:31:48;20.27;;;12.32;;
27213;SDS011;14723;55.814;37.460;2023-09-19T03:34:54;24.42;;;13.90;;
27213;SDS011;14723;55.814;37.460;2023-09-19T03:38:02;25.52;;;13.30;;
27213;SDS011;14723;55.814;37.460;2023-09-19T03:44:16;21.67;;;13.43;;
27213;SDS011;14723;55.814;37.460;2023-09-19T03:47:22;19.75;;;13.25;;
27213;SDS011;14723;55.814;37.460;2023-09-19T03:50:29;23.00;;;12.70;;
27213;SDS011;14723;55.814;37.460;2023-09-19T03:53:38;21.90;;;13.07;;
27213;SDS011;14723;55.814;37.460;2023-09-19T03:59:49;19.23;;;12.82;;
27213;SDS011;14723;55.814;37.460;2023-09-19T04:02:55;21.73;;;12.80;;
27213;SDS011;14723;55.814;37.460;2023-09-19T04:06:01;19.25;;;12.27;;
27213;SDS011;14723;55.814;37.460;2023-09-19T04:09:09;20.50;;;12.15;;
27213;SDS011;14723;55.814;37.460;2023-09-19T04:12:15;17.95;;;12.40;;
27213;SDS011;14723;55.814;37.460;2023-09-19T04:15:21;18.80;;;12.77;;
27213;SDS011;14723;55.814;37.460;2023-09-19T04:18:28;21.52;;;12.40;;
27213;SDS011;14723;55.814;37.460;2023-09-19T04:21:37;21.13;;;12.73;;
27213;SDS011;14723;55.814;37.460;2023-09-19T04:24:46;24.85;;;13.05;;
27213;SDS011;14723;55.814;37.460;2023-09-19T04:27:51;22.35;;;13.43;;
27213;SDS011;14723;55.814;37.460;2023-09-19T04:30:57;18.88;;;12.65;;
27213;SDS011;14723;55.814;37.460;2023-09-19T04:34:03;21.27;;;13.52;;
27213;SDS011;14723;55.814;37.460;2023-09-19T04:37:10;20.00;;;12.77;;
27213;SDS011;14723;55.814;37.460;2023-09-19T04:40:20;25.88;;;14.07;;
27213;SDS011;14723;55.814;37.460;2023-09-19T04:43:29;29.45;;;15.15;;
27213;SDS011;14723;55.814;37.460;2023-09-19T04:46:34;26.20;;;14.10;;
27213;SDS011;14723;55.814;37.460;2023-09-19T04:49:40;26.63;;;16.42;;
27213;SDS011;14723;55.814;37.460;2023-09-19T04:52:45;26.20;;;16.13;;
27213;SDS011;14723;55.814;37.460;2023-09-19T04:55:55;34.80;;;17.20;;
27213;SDS011;14723;55.814;37.460;2023-09-19T04:59:00;31.42;;;19.38;;
27213;SDS011;14723;55.814;37.460;2023-09-19T05:02:07;35.13;;;22.48;;
27213;SDS011;14723;55.814;37.460;2023-09-19T05:05:14;36.17;;;21.08;;
27213;SDS011;14723;55.814;37.460;2023-09-19T05:08:20;38.53;;;22.60;;
27213;SDS011;14723;55.814;37.460;2023-09-19T05:11:28;38.15;;;22.58;;
27213;SDS011;14723;55.814;37.460;2023-09-19T05:14:33;33.80;;;23.02;;
27213;SDS011;14723;55.814;37.460;2023-09-19T05:17:39;37.10;;;23.25;;
27213;SDS011;14723;55.814;37.460;2023-09-19T05:20:44;34.58;;;22.42;;
27213;SDS011;14723;55.814;37.460;2023-09-19T05:23:51;31.73;;;21.45;;
27213;SDS011;14723;55.814;37.460;2023-09-19T05:26:59;33.45;;;20.55;;
27213;SDS011;14723;55.814;37.460;2023-09-19T05:30:06;28.45;;;18.60;;
27213;SDS011;14723;55.814;37.460;2023-09-19T05:33:11;28.30;;;18.67;;
27213;SDS011;14723;55.814;37.460;2023-09-19T05:36:17;26.52;;;18.65;;
27213;SDS011;14723;55.814;37.460;2023-09-19T05:39:22;29.33;;;19.10;;
27213;SDS011;14723;55.814;37.460;2023-09-19T05:42:30;27.27;;;17.83;;
27213;SDS011;14723;55.814;37.460;2023-09-19T05:45:35;33.63;;;17.17;;
27213;SDS011;14723;55.814;37.460;2023-09-19T05:48:43;28.13;;;18.88;;
27213;SDS011;14723;55.814;37.460;2023-09-19T05:51:52;31.85;;;18.10;;
27213;SDS011;14723;55.814;37.460;2023-09-19T05:54:58;24.98;;;16.67;;
27213;SDS011;14723;55.814;37.460;2023-09-19T05:58:06;26.88;;;16.30;;
27213;SDS011;14723;55.814;37.460;2023-09-19T06:04:17;22.60;;;16.15;;
27213;SDS011;14723;55.814;37.460;2023-09-19T06:07:23;36.80;;;17.50;;
27213;SDS011;14723;55.814;37.460;2023-09-19T06:10:38;28.15;;;16.85;;
27213;SDS011;14723;55.814;37.460;2023-09-19T06:13:46;25.05;;;16.10;;
27213;SDS011;14723;55.814;37.460;2023-09-19T06:16:53;24.75;;;15.98;;
27213;SDS011;14723;55.814;37.460;2023-09-19T06:19:59;28.73;;;16.77;;
27213;SDS011;14723;55.814;37.460;2023-09-19T06:23:06;28.83;;;16.65;;
27213;SDS011;14723;55.814;37.460;2023-09-19T06:26:12;23.85;;;15.63;;
27213;SDS011;14723;55.814;37.460;2023-09-19T06:29:19;24.85;;;16.27;;
27213;SDS011;14723;55.814;37.460;2023-09-19T06:32:26;26.35;;;17.13;;
27213;SDS011;14723;55.814;37.460;2023-09-19T06:35:32;27.10;;;15.52;;
27213;SDS011;14723;55.814;37.460;2023-09-19T06:38:38;28.88;;;17.13;;
27213;SDS011;14723;55.814;37.460;2023-09-19T06:41:43;28.70;;;16.85;;
27213;SDS011;14723;55.814;37.460;2023-09-19T06:44:51;26.70;;;17.33;;
27213;SDS011;14723;55.814;37.460;2023-09-19T06:47:58;26.40;;;16.73;;
27213;SDS011;14723;55.814;37.460;2023-09-19T06:51:05;30.98;;;16.45;;
27213;SDS011;14723;55.814;37.460;2023-09-19T06:54:10;30.02;;;17.00;;
27213;SDS011;14723;55.814;37.460;2023-09-19T06:57:15;24.33;;;16.33;;
27213;SDS011;14723;55.814;37.460;2023-09-19T07:00:24;26.17;;;16.42;;
27213;SDS011;14723;55.814;37.460;2023-09-19T07:03:31;28.25;;;16.55;;
27213;SDS011;14723;55.814;37.460;2023-09-19T07:06:36;26.83;;;17.15;;
27213;SDS011;14723;55.814;37.460;2023-09-19T07:09:42;32.65;;;18.20;;
27213;SDS011;14723;55.814;37.460;2023-09-19T07:12:53;27.52;;;16.15;;
27213;SDS011;14723;55.814;37.460;2023-09-19T07:16:01;25.27;;;16.73;;
27213;SDS011;14723;55.814;37.460;2023-09-19T07:19:07;32.33;;;18.35;;
27213;SDS011;14723;55.814;37.460;2023-09-19T07:22:12;28.55;;;16.50;;
27213;SDS011;14723;55.814;37.460;2023-09-19T07:25:17;30.73;;;16.63;;
27213;SDS011;14723;55.814;37.460;2023-09-19T07:28:23;29.65;;;18.33;;
27213;SDS011;14723;55.814;37.460;2023-09-19T07:31:31;31.17;;;18.77;;
27213;SDS011;14723;55.814;37.460;2023-09-19T07:34:37;30.63;;;18.30;;
27213;SDS011;14723;55.814;37.460;2023-09-19T07:37:43;29.55;;;18.17;;
27213;SDS011;14723;55.814;37.460;2023-09-19T07:40:52;29.73;;;18.33;;
27213;SDS011;14723;55.814;37.460;2023-09-19T07:43:58;31.80;;;17.95;;
27213;SDS011;14723;55.814;37.460;2023-09-19T07:47:06;30.80;;;17.13;;
27213;SDS011;14723;55.814;37.460;2023-09-19T07:50:12;39.08;;;18.88;;
27213;SDS011;14723;55.814;37.460;2023-09-19T07:53:19;34.65;;;18.73;;
27213;SDS011;14723;55.814;37.460;2023-09-19T07:56:24;31.10;;;17.58;;
27213;SDS011;14723;55.814;37.460;2023-09-19T07:59:30;27.95;;;18.17;;
27213;SDS011;14723;55.814;37.460;2023-09-19T08:02:38;30.73;;;16.90;;
27213;SDS011;14723;55.814;37.460;2023-09-19T08:05:43;31.45;;;17.73;;
27213;SDS011;14723;55.814;37.460;2023-09-19T08:08:51;30.73;;;17.83;;
27213;SDS011;14723;55.814;37.460;2023-09-19T08:11:59;35.58;;;17.60;;
27213;SDS011;14723;55.814;37.460;2023-09-19T08:15:06;30.13;;;19.03;;
27213;SDS011;14723;55.814;37.460;2023-09-19T08:18:15;26.00;;;18.17;;
27213;SDS011;14723;55.814;37.460;2023-09-19T08:21:20;30.48;;;17.88;;
27213;SDS011;14723;55.814;37.460;2023-09-19T08:24:26;27.67;;;18.73;;
27213;SDS011;14723;55.814;37.460;2023-09-19T08:27:32;28.42;;;18.15;;
27213;SDS011;14723;55.814;37.460;2023-09-19T08:30:38;30.35;;;17.52;;
27213;SDS011;14723;55.814;37.460;2023-09-19T08:33:47;31.85;;;18.77;;
27213;SDS011;14723;55.814;37.460;2023-09-19T08:36:54;36.53;;;17.40;;
27213;SDS011;14723;55.814;37.460;2023-09-19T08:39:59;31.23;;;18.10;;
27213;SDS011;14723;55.814;37.460;2023-09-19T08:43:04;32.50;;;18.27;;
27213;SDS011;14723;55.814;37.460;2023-09-19T08:46:11;31.45;;;17.95;;
27213;SDS011;14723;55.814;37.460;2023-09-19T08:49:19;27.58;;;17.30;;
27213;SDS011;14723;55.814;37.460;2023-09-19T08:52:28;34.42;;;19.38;;
27213;SDS011;14723;55.814;37.460;2023-09-19T08:55:37;30.92;;;18.38;;
27213;SDS011;14723;55.814;37.460;2023-09-19T08:58:46;35.47;;;19.33;;
27213;SDS011;14723;55.814;37.460;2023-09-19T09:01:53;31.55;;;17.95;;
27213;SDS011;14723;55.814;37.460;2023-09-19T09:05:02;39.00;;;19.42;;
27213;SDS011;14723;55.814;37.460;2023-09-19T09:08:10;30.02;;;17.73;;
27213;SDS011;14723;55.814;37.460;2023-09-19T09:11:15;29.33;;;19.48;;
27213;SDS011;14723;55.814;37.460;2023-09-19T09:14:21;27.75;;;17.67;;
27213;SDS011;14723;55.814;37.460;2023-09-19T09:17:27;26.08;;;17.60;;
27213;SDS011;14723;55.814;37.460;2023-09-19T09:20:35;32.70;;;19.48;;
27213;SDS011;14723;55.814;37.460;2023-09-19T09:23:41;31.08;;;17.45;;
27213;SDS011;14723;55.814;37.460;2023-09-19T09:26:46;27.48;;;17.27;;
27213;SDS011;14723;55.814;37.460;2023-09-19T09:29:52;26.95;;;17.67;;
27213;SDS011;14723;55.814;37.460;2023-09-19T09:33:07;29.52;;;17.00;;
27213;SDS011;14723;55.814;37.460;2023-09-19T09:36:16;28.45;;;16.83;;
27213;SDS011;14723;55.814;37.460;2023-09-19T09:39:39;25.70;;;16.90;;
27213;SDS011;14723;55.814;37.460;2023-09-19T09:42:45;27.80;;;17.92;;
27213;SDS011;14723;55.814;37.460;2023-09-19T09:45:57;33.20;;;17.75;;
27213;SDS011;14723;55.814;37.460;2023-09-19T09:49:22;26.88;;;17.23;;
27213;SDS011;14723;55.814;37.460;2023-09-19T09:59:08;30.83;;;17.55;;
27213;SDS011;14723;55.814;37.460;2023-09-19T10:02:22;28.48;;;16.75;;
27213;SDS011;14723;55.814;37.460;2023-09-19T10:05:32;31.80;;;17.50;;
27213;SDS011;14723;55.814;37.460;2023-09-19T10:08:57;35.38;;;17.83;;
27213;SDS011;14723;55.814;37.460;2023-09-19T10:12:07;27.60;;;17.02;;
27213;SDS011;14723;55.814;37.460;2023-09-19T10:15:18;29.55;;;18.92;;
27213;SDS011;14723;55.814;37.460;2023-09-19T10:18:23;29.00;;;17.02;;
27213;SDS011;14723;55.814;37.460;2023-09-19T10:21:30;25.55;;;17.13;;
27213;SDS011;14723;55.814;37.460;2023-09-19T10:24:35;31.38;;;17.27;;
27213;SDS011;14723;55.814;37.460;2023-09-19T10:28:01;30.05;;;18.38;;
27213;SDS011;14723;55.814;37.460;2023-09-19T10:31:13;26.75;;;17.25;;
27213;SDS011;14723;55.814;37.460;2023-09-19T10:34:23;29.30;;;18.67;;
27213;SDS011;14723;55.814;37.460;2023-09-19T10:37:30;30.73;;;18.50;;
27213;SDS011;14723;55.814;37.460;2023-09-19T10:40:37;26.50;;;17.90;;
27213;SDS011;14723;55.814;37.460;2023-09-19T10:43:45;31.08;;;19.35;;
27213;SDS011;14723;55.814;37.460;2023-09-19T10:46:53;30.05;;;19.65;;
27213;SDS011;14723;55.814;37.460;2023-09-19T10:49:59;28.85;;;18.55;;
27213;SDS011;14723;55.814;37.460;2023-09-19T10:53:07;33.28;;;19.15;;
27213;SDS011;14723;55.814;37.460;2023-09-19T10:56:16;31.55;;;18.98;;
27213;SDS011;14723;55.814;37.460;2023-09-19T10:59:23;23.02;;;17.58;;
27213;SDS011;14723;55.814;37.460;2023-09-19T11:02:41;35.47;;;19.15;;
27213;SDS011;14723;55.814;37.460;2023-09-19T11:09:12;29.55;;;17.25;;
27213;SDS011;14723;55.814;37.460;2023-09-19T11:19:24;25.13;;;16.40;;
27213;SDS011;14723;55.814;37.460;2023-09-19T11:26:14;23.33;;;15.57;;
27213;SDS011;14723;55.814;37.460;2023-09-19T11:29:37;24.70;;;15.27;;
27213;SDS011;14723;55.814;37.460;2023-09-19T11:36:17;23.52;;;15.07;;
27213;SDS011;14723;55.814;37.460;2023-09-19T11:39:27;22.83;;;15.88;;
27213;SDS011;14723;55.814;37.460;2023-09-19T11:42:42;24.83;;;15.10;;
27213;SDS011;14723;55.814;37.460;2023-09-19T11:46:03;22.33;;;14.27;;
27213;SDS011;14723;55.814;37.460;2023-09-19T11:49:09;18.75;;;13.52;;
27213;SDS011;14723;55.814;37.460;2023-09-19T11:52:23;17.63;;;13.60;;
27213;SDS011;14723;55.814;37.460;2023-09-19T11:55:32;18.80;;;13.47;;
27213;SDS011;14723;55.814;37.460;2023-09-19T11:58:37;20.58;;;13.50;;
27213;SDS011;14723;55.814;37.460;2023-09-19T12:01:50;23.03;;;13.90;;
27213;SDS011;14723;55.814;37.460;2023-09-19T12:05:00;20.33;;;14.25;;
27213;SDS011;14723;55.814;37.460;2023-09-19T12:08:11;21.63;;;13.80;;
27213;SDS011;14723;55.814;37.460;2023-09-19T12:11:21;21.60;;;13.13;;
27213;SDS011;14723;55.814;37.460;2023-09-19T12:14:28;19.00;;;12.95;;
27213;SDS011;14723;55.814;37.460;2023-09-19T12:17:36;18.40;;;13.82;;
27213;SDS011;14723;55.814;37.460;2023-09-19T12:20:44;20.80;;;13.40;;
27213;SDS011;14723;55.814;37.460;2023-09-19T12:24:00;24.17;;;15.38;;
27213;SDS011;14723;55.814;37.460;2023-09-19T12:27:13;19.55;;;13.07;;
27213;SDS011;14723;55.814;37.460;2023-09-19T12:30:19;17.85;;;12.25;;
27213;SDS011;14723;55.814;37.460;2023-09-19T12:33:28;17.48;;;11.90;;
27213;SDS011;14723;55.814;37.460;2023-09-19T12:36:34;18.90;;;13.63;;
27213;SDS011;14723;55.814;37.460;2023-09-19T12:39:45;20.17;;;13.30;;
27213;SDS011;14723;55.814;37.460;2023-09-19T12:42:51;17.33;;;12.50;;
27213;SDS011;14723;55.814;37.460;2023-09-19T12:45:57;20.08;;;12.10;;
27213;SDS011;14723;55.814;37.460;2023-09-19T12:49:16;17.67;;;11.60;;
27213;SDS011;14723;55.814;37.460;2023-09-19T12:52:22;17.58;;;12.02;;
27213;SDS011;14723;55.814;37.460;2023-09-19T12:55:31;16.42;;;13.30;;
27213;SDS011;14723;55.814;37.460;2023-09-19T12:58:48;24.73;;;11.95;;
27213;SDS011;14723;55.814;37.460;2023-09-19T13:01:53;22.50;;;12.80;;
27213;SDS011;14723;55.814;37.460;2023-09-19T13:05:09;23.92;;;13.05;;
27213;SDS011;14723;55.814;37.460;2023-09-19T13:08:18;25.42;;;12.35;;
27213;SDS011;14723;55.814;37.460;2023-09-19T13:11:35;23.85;;;12.15;;
27213;SDS011;14723;55.814;37.460;2023-09-19T13:14:41;20.40;;;12.02;;
27213;SDS011;14723;55.814;37.460;2023-09-19T13:17:49;19.63;;;13.15;;
27213;SDS011;14723;55.814;37.460;2023-09-19T13:21:05;16.60;;;11.13;;
27213;SDS011;14723;55.814;37.460;2023-09-19T13:24:19;18.08;;;10.93;;
27213;SDS011;14723;55.814;37.460;2023-09-19T13:27:32;23.13;;;11.82;;
27213;SDS011;14723;55.814;37.460;2023-09-19T13:30:38;20.35;;;10.25;;
27213;SDS011;14723;55.814;37.460;2023-09-19T13:36:51;19.95;;;11.23;;
27213;SDS011;14723;55.814;37.460;2023-09-19T13:39:56;17.52;;;10.10;;
27213;SDS011;14723;55.814;37.460;2023-09-19T13:43:05;16.05;;;10.23;;
27213;SDS011;14723;55.814;37.460;2023-09-19T13:46:11;17.60;;;10.68;;
27213;SDS011;14723;55.814;37.460;2023-09-19T13:49:18;15.82;;;10.10;;
27213;SDS011;14723;55.814;37.460;2023-09-19T13:52:25;11.85;;;8.88;;
27213;SDS011;14723;55.814;37.460;2023-09-19T13:58:40;8.07;;;6.70;;
27213;SDS011;14723;55.814;37.460;2023-09-19T14:01:46;10.70;;;7.88;;
27213;SDS011;14723;55.814;37.460;2023-09-19T14:04:52;15.70;;;12.55;;
27213;SDS011;14723;55.814;37.460;2023-09-19T14:07:57;13.23;;;8.60;;
27213;SDS011;14723;55.814;37.460;2023-09-19T14:11:05;13.23;;;7.47;;
27213;SDS011;14723;55.814;37.460;2023-09-19T14:14:14;12.93;;;9.95;;
27213;SDS011;14723;55.814;37.460;2023-09-19T14:17:19;10.55;;;7.35;;
27213;SDS011;14723;55.814;37.460;2023-09-19T14:20:27;9.40;;;7.15;;
27213;SDS011;14723;55.814;37.460;2023-09-19T14:23:34;10.65;;;7.93;;
27213;SDS011;14723;55.814;37.460;2023-09-19T14:26:40;10.82;;;7.68;;
27213;SDS011;14723;55.814;37.460;2023-09-19T14:29:48;10.13;;;6.72;;
27213;SDS011;14723;55.814;37.460;2023-09-19T14:32:53;11.80;;;7.78;;
27213;SDS011;14723;55.814;37.460;2023-09-19T14:36:02;12.23;;;7.60;;
27213;SDS011;14723;55.814;37.460;2023-09-19T14:39:07;13.20;;;8.45;;
27213;SDS011;14723;55.814;37.460;2023-09-19T14:42:13;11.20;;;8.25;;
27213;SDS011;14723;55.814;37.460;2023-09-19T14:45:23;11.00;;;8.65;;
27213;SDS011;14723;55.814;37.460;2023-09-19T14:48:28;11.75;;;8.27;;
27213;SDS011;14723;55.814;37.460;2023-09-19T14:51:34;10.27;;;7.35;;
27213;SDS011;14723;55.814;37.460;2023-09-19T14:54:41;14.88;;;8.57;;
27213;SDS011;14723;55.814;37.460;2023-09-19T14:57:48;13.10;;;8.60;;
27213;SDS011;14723;55.814;37.460;2023-09-19T15:01:03;13.45;;;7.78;;
27213;SDS011;14723;55.814;37.460;2023-09-19T15:04:09;11.75;;;8.07;;
27213;SDS011;14723;55.814;37.460;2023-09-19T15:07:15;14.52;;;8.65;;
27213;SDS011;14723;55.814;37.460;2023-09-19T15:10:21;10.98;;;8.48;;
27213;SDS011;14723;55.814;37.460;2023-09-19T15:13:26;17.42;;;8.05;;
27213;SDS011;14723;55.814;37.460;2023-09-19T15:16:34;14.80;;;7.80;;
27213;SDS011;14723;55.814;37.460;2023-09-19T15:19:42;11.75;;;8.65;;
27213;SDS011;14723;55.814;37.460;2023-09-19T15:22:48;16.20;;;8.90;;
27213;SDS011;14723;55.814;37.460;2023-09-19T15:25:53;13.80;;;8.52;;
27213;SDS011;14723;55.814;37.460;2023-09-19T15:28:59;13.95;;;8.20;;
27213;SDS011;14723;55.814;37.460;2023-09-19T15:32:07;18.50;;;8.57;;
27213;SDS011;14723;55.814;37.460;2023-09-19T15:38:19;11.38;;;8.25;;
27213;SDS011;14723;55.814;37.460;2023-09-19T15:41:24;17.63;;;8.95;;
27213;SDS011;14723;55.814;37.460;2023-09-19T15:44:30;14.90;;;8.35;;
27213;SDS011;14723;55.814;37.460;2023-09-19T15:47:38;13.05;;;8.45;;
27213;SDS011;14723;55.814;37.460;2023-09-19T15:50:44;15.90;;;7.63;;
27213;SDS011;14723;55.814;37.460;2023-09-19T15:53:50;14.80;;;8.35;;
27213;SDS011;14723;55.814;37.460;2023-09-19T15:56:55;16.38;;;8.50;;
27213;SDS011;14723;55.814;37.460;2023-09-19T16:00:01;24.13;;;9.15;;
27213;SDS011;14723;55.814;37.460;2023-09-19T16:03:15;20.77;;;9.55;;
27213;SDS011;14723;55.814;37.460;2023-09-19T16:06:24;15.45;;;9.30;;
27213;SDS011;14723;55.814;37.460;2023-09-19T16:09:29;14.02;;;9.60;;
27213;SDS011;14723;55.814;37.460;2023-09-19T16:12:35;17.50;;;9.80;;
27213;SDS011;14723;55.814;37.460;2023-09-19T16:15:41;18.30;;;11.40;;
27213;SDS011;14723;55.814;37.460;2023-09-19T16:18:50;18.75;;;9.43;;
27213;SDS011;14723;55.814;37.460;2023-09-19T16:21:58;21.23;;;10.27;;
27213;SDS011;14723;55.814;37.460;2023-09-19T16:25:04;14.88;;;9.70;;
27213;SDS011;14723;55.814;37.460;2023-09-19T16:28:13;18.23;;;10.52;;
27213;SDS011;14723;55.814;37.460;2023-09-19T16:31:19;14.15;;;9.27;;
27213;SDS011;14723;55.814;37.460;2023-09-19T16:34:41;18.55;;;10.52;;
27213;SDS011;14723;55.814;37.460;2023-09-19T16:37:46;14.00;;;9.88;;
27213;SDS011;14723;55.814;37.460;2023-09-19T16:40:52;19.55;;;10.00;;
27213;SDS011;14723;55.814;37.460;2023-09-19T16:43:57;19.33;;;9.63;;
27213;SDS011;14723;55.814;37.460;2023-09-19T16:47:03;19.08;;;9.82;;
27213;SDS011;14723;55.814;37.460;2023-09-19T16:50:11;14.25;;;9.77;;
27213;SDS011;14723;55.814;37.460;2023-09-19T16:53:16;17.33;;;10.93;;
27213;SDS011;14723;55.814;37.460;2023-09-19T16:56:22;17.60;;;10.60;;
27213;SDS011;14723;55.814;37.460;2023-09-19T16:59:28;23.23;;;11.07;;
27213;SDS011;14723;55.814;37.460;2023-09-19T17:02:34;17.55;;;10.55;;
27213;SDS011;14723;55.814;37.460;2023-09-19T17:05:42;17.63;;;10.65;;
27213;SDS011;14723;55.814;37.460;2023-09-19T17:08:49;19.88;;;10.95;;
27213;SDS011;14723;55.814;37.460;2023-09-19T17:11:55;22.58;;;12.68;;
27213;SDS011;14723;55.814;37.460;2023-09-19T17:15:00;23.27;;;11.60;;
27213;SDS011;14723;55.814;37.460;2023-09-19T17:18:06;19.65;;;10.55;;
27213;SDS011;14723;55.814;37.460;2023-09-19T17:21:14;22.75;;;11.65;;
27213;SDS011;14723;55.814;37.460;2023-09-19T17:24:20;16.77;;;12.05;;
27213;SDS011;14723;55.814;37.460;2023-09-19T17:27:25;18.77;;;11.25;;
27213;SDS011;14723;55.814;37.460;2023-09-19T17:30:30;20.33;;;12.10;;
27213;SDS011;14723;55.814;37.460;2023-09-19T17:33:36;22.05;;;12.52;;
27213;SDS011;14723;55.814;37.460;2023-09-19T17:36:46;24.88;;;12.43;;
27213;SDS011;14723;55.814;37.460;2023-09-19T17:39:51;19.30;;;11.38;;
27213;SDS011;14723;55.814;37.460;2023-09-19T17:42:57;21.25;;;12.95;;
27213;SDS011;14723;55.814;37.460;2023-09-19T17:46:07;20.17;;;12.75;;
27213;SDS011;14723;55.814;37.460;2023-09-19T17:49:14;26.15;;;13.05;;
27213;SDS011;14723;55.814;37.460;2023-09-19T17:52:22;25.20;;;13.15;;
27213;SDS011;14723;55.814;37.460;2023-09-19T17:55:29;22.77;;;11.98;;
27213;SDS011;14723;55.814;37.460;2023-09-19T17:58:34;23.90;;;12.13;;
27213;SDS011;14723;55.814;37.460;2023-09-19T18:01:40;21.55;;;11.73;;
27213;SDS011;14723;55.814;37.460;2023-09-19T18:04:47;22.27;;;12.93;;
27213;SDS011;14723;55.814;37.460;2023-09-19T18:07:55;19.50;;;12.43;;
27213;SDS011;14723;55.814;37.460;2023-09-19T18:14:09;21.25;;;12.02;;
27213;SDS011;14723;55.814;37.460;2023-09-19T18:17:16;17.27;;;12.00;;
27213;SDS011;14723;55.814;37.460;2023-09-19T18:20:23;27.90;;;13.45;;
27213;SDS011;14723;55.814;37.460;2023-09-19T18:23:31;22.65;;;12.98;;
27213;SDS011;14723;55.814;37.460;2023-09-19T18:26:36;18.77;;;13.23;;
27213;SDS011;14723;55.814;37.460;2023-09-19T18:29:42;21.85;;;13.57;;
27213;SDS011;14723;55.814;37.460;2023-09-19T18:32:49;23.10;;;12.45;;
27213;SDS011;14723;55.814;37.460;2023-09-19T18:36:00;26.20;;;14.77;;
27213;SDS011;14723;55.814;37.460;2023-09-19T18:39:09;20.92;;;12.30;;
27213;SDS011;14723;55.814;37.460;2023-09-19T18:42:17;20.55;;;12.88;;
27213;SDS011;14723;55.814;37.460;2023-09-19T18:45:22;23.92;;;13.07;;
27213;SDS011;14723;55.814;37.460;2023-09-19T18:48:42;22.13;;;12.35;;
27213;SDS011;14723;55.814;37.460;2023-09-19T18:51:49;23.02;;;12.57;;
27213;SDS011;14723;55.814;37.460;2023-09-19T18:54:57;24.45;;;13.00;;